^^
Saratoga-Weather Station Historical Data
Daily Summary for November 30, 2021 Units:  Both    English   Metric
Daily Weekly Monthly Yearly Custom
  High: Low: Average:
Temperature: 43 °F /  6.1 °C 35.1 °F /  1.7 °C 38.8 °F /  3.8 °C
Dew Point: 41.4 °F /  5.2 °C 32.9 °F /  0.5 °C 37 °F /  2.8 °C
Humidity: 95% 89% 93%
Wind Speed: 15mph /  24.1km/h - 4.4mph /  7.1km/h
Wind Gust: 19mph /  30.6km/h - -
Wind- - West
Pressure: 30 in /  1016.9 hPa 29.9 in /  1011.2 hPa -
Precipitation: 0.22 in /  5.6 mm    
Historical Graphs
 
 
Tabular Data for November 30, 2021
Time Temperature Dew Point Pressure Wind Wind Speed Wind Gust Humidity Rainfall Rate (Hourly) solar
00:04 36.9 °F /  2.7 °C 34.5 °F /  1.4 °C 30in /  1016.6hPa WSW 2mph /  3.2km/h 10mph /  16.1km/h 91% 0in /  0.0mm 0 W/m2
00:09 36.9 °F /  2.7 °C 34.5 °F /  1.4 °C 30in /  1016.6hPa West 6mph /  9.7km/h 8mph /  12.9km/h 91% 0in /  0.0mm 0 W/m2
00:14 36.9 °F /  2.7 °C 34.5 °F /  1.4 °C 30in /  1016.6hPa West 2.9mph /  4.7km/h 9mph /  14.5km/h 91% 0in /  0.0mm 0 W/m2
00:19 36.9 °F /  2.7 °C 34.5 °F /  1.4 °C 30in /  1016.6hPa West 6mph /  9.7km/h 9mph /  14.5km/h 91% 0in /  0.0mm 0 W/m2
00:24 36.9 °F /  2.7 °C 34.5 °F /  1.4 °C 30in /  1016.9hPa WSW 8.1mph /  13km/h 11mph /  17.7km/h 91% 0in /  0.0mm 0 W/m2
00:29 36.9 °F /  2.7 °C 34.5 °F /  1.4 °C 30in /  1016.9hPa WSW 4.9mph /  7.9km/h 6mph /  9.7km/h 91% 0in /  0.0mm 0 W/m2
00:34 36.9 °F /  2.7 °C 34.5 °F /  1.4 °C 30in /  1016.6hPa WNW 4mph /  6.4km/h 6mph /  9.7km/h 91% 0in /  0.0mm 0 W/m2
00:39 36.9 °F /  2.7 °C 34.5 °F /  1.4 °C 30in /  1016.6hPa WNW 2.9mph /  4.7km/h 9mph /  14.5km/h 91% 0in /  0.0mm 0 W/m2
00:44 36.9 °F /  2.7 °C 34.5 °F /  1.4 °C 30in /  1016.9hPa WSW 6mph /  9.7km/h 12mph /  19.3km/h 91% 0in /  0.0mm 0 W/m2
00:49 36.9 °F /  2.7 °C 34.5 °F /  1.4 °C 30in /  1016.6hPa WSW 4mph /  6.4km/h 8mph /  12.9km/h 91% 0in /  0.0mm 0 W/m2
00:54 36.7 °F /  2.6 °C 34.3 °F /  1.3 °C 30in /  1016.6hPa West 2.9mph /  4.7km/h 8mph /  12.9km/h 91% 0in /  0.0mm 0 W/m2
00:59 36.7 °F /  2.6 °C 34.3 °F /  1.3 °C 30in /  1016.6hPa NW 2.9mph /  4.7km/h 5mph /  8km/h 91% 0in /  0.0mm 0 W/m2
01:04 36.7 °F /  2.6 °C 34.3 °F /  1.3 °C 30in /  1016.9hPa WNW 2mph /  3.2km/h 6mph /  9.7km/h 91% 0in /  0.0mm 0 W/m2
01:09 36.7 °F /  2.6 °C 34.3 °F /  1.3 °C 30in /  1016.6hPa WSW 0.9mph /  1.4km/h 10mph /  16.1km/h 91% 0in /  0.0mm 0 W/m2
01:14 36.7 °F /  2.6 °C 34.3 °F /  1.3 °C 30in /  1016.9hPa SW 2.9mph /  4.7km/h 5mph /  8km/h 91% 0in /  0.0mm 0 W/m2
01:19 36.5 °F /  2.5 °C 34.2 °F /  1.2 °C 30in /  1016.9hPa Calm   7mph /  11.3km/h 91% 0in /  0.0mm 0 W/m2
01:24 36.5 °F /  2.5 °C 34.2 °F /  1.2 °C 30in /  1016.9hPa WNW 0.9mph /  1.4km/h 4mph /  6.4km/h 91% 0in /  0.0mm 0 W/m2
01:34 36.3 °F /  2.4 °C 34 °F /  1.1 °C 30in /  1016.9hPa WNW 4mph /  6.4km/h 8mph /  12.9km/h 91% 0in /  0.0mm 0 W/m2
01:39 36.1 °F /  2.3 °C 33.8 °F /  1 °C 30in /  1016.6hPa West 4mph /  6.4km/h 6mph /  9.7km/h 91% 0in /  0.0mm 0 W/m2
01:44 36.1 °F /  2.3 °C 33.8 °F /  1 °C 30in /  1016.6hPa West 0.9mph /  1.4km/h 8mph /  12.9km/h 91% 0in /  0.0mm 0 W/m2
01:49 36.1 °F /  2.3 °C 33.8 °F /  1 °C 30in /  1016.6hPa WNW 2.9mph /  4.7km/h 11mph /  17.7km/h 91% 0in /  0.0mm 0 W/m2
01:54 36.1 °F /  2.3 °C 33.8 °F /  1 °C 30in /  1016.6hPa WNW 2mph /  3.2km/h 4mph /  6.4km/h 91% 0in /  0.0mm 0 W/m2
01:59 36.1 °F /  2.3 °C 33.8 °F /  1 °C 30in /  1016.6hPa WSW 0.9mph /  1.4km/h 3mph /  4.8km/h 91% 0in /  0.0mm 0 W/m2
02:04 36.1 °F /  2.3 °C 33.8 °F /  1 °C 30in /  1016.6hPa WNW 2.9mph /  4.7km/h 11mph /  17.7km/h 91% 0in /  0.0mm 0 W/m2
02:10 36.1 °F /  2.3 °C 33.8 °F /  1 °C 30in /  1016.6hPa West 2.9mph /  4.7km/h 10mph /  16.1km/h 91% 0in /  0.0mm 0 W/m2
02:15 36.1 °F /  2.3 °C 33.8 °F /  1 °C 30in /  1016.6hPa Calm   8mph /  12.9km/h 91% 0in /  0.0mm 0 W/m2
02:20 36.1 °F /  2.3 °C 33.8 °F /  1 °C 30in /  1016.6hPa West 4mph /  6.4km/h 10mph /  16.1km/h 91% 0in /  0.0mm 0 W/m2
02:25 36.1 °F /  2.3 °C 33.8 °F /  1 °C 30in /  1016.6hPa NW 2mph /  3.2km/h 4mph /  6.4km/h 91% 0in /  0.0mm 0 W/m2
02:30 36.1 °F /  2.3 °C 33.8 °F /  1 °C 30in /  1016.6hPa WNW 2mph /  3.2km/h 10mph /  16.1km/h 91% 0in /  0.0mm 0 W/m2
02:35 36.1 °F /  2.3 °C 33.8 °F /  1 °C 30in /  1016.6hPa WSW 0.9mph /  1.4km/h 4mph /  6.4km/h 91% 0in /  0.0mm 0 W/m2
02:40 36.1 °F /  2.3 °C 33.8 °F /  1 °C 30in /  1016.6hPa SSW 6mph /  9.7km/h 10mph /  16.1km/h 91% 0in /  0.0mm 0 W/m2
02:45 36.1 °F /  2.3 °C 33.8 °F /  1 °C 30in /  1016.3hPa Calm   3mph /  4.8km/h 91% 0in /  0.0mm 0 W/m2
02:50 36.1 °F /  2.3 °C 33.8 °F /  1 °C 30in /  1016.6hPa WNW 2mph /  3.2km/h 7mph /  11.3km/h 91% 0in /  0.0mm 0 W/m2
02:55 36.3 °F /  2.4 °C 34 °F /  1.1 °C 30in /  1016.6hPa WSW 6mph /  9.7km/h 12mph /  19.3km/h 91% 0in /  0.0mm 0 W/m2
03:00 36.3 °F /  2.4 °C 34 °F /  1.1 °C 30in /  1016.3hPa Calm   5mph /  8km/h 91% 0in /  0.0mm 0 W/m2
03:05 36.1 °F /  2.3 °C 33.8 °F /  1 °C 30in /  1016.3hPa Calm   12mph /  19.3km/h 91% 0in /  0.0mm 0 W/m2
03:10 36.1 °F /  2.3 °C 33.8 °F /  1 °C 30in /  1016.3hPa Calm   4mph /  6.4km/h 91% 0in /  0.0mm 0 W/m2
03:15 36.1 °F /  2.3 °C 33.8 °F /  1 °C 30in /  1016.3hPa WNW 2.9mph /  4.7km/h 8mph /  12.9km/h 91% 0in /  0.0mm 0 W/m2
03:20 36.1 °F /  2.3 °C 33.8 °F /  1 °C 30in /  1016.3hPa SW 2.9mph /  4.7km/h 6mph /  9.7km/h 91% 0in /  0.0mm 0 W/m2
03:25 36.1 °F /  2.3 °C 33.8 °F /  1 °C 30in /  1016.3hPa WNW 0.9mph /  1.4km/h 3mph /  4.8km/h 91% 0in /  0.0mm 0 W/m2
03:30 36.1 °F /  2.3 °C 33.8 °F /  1 °C 30in /  1016.3hPa West 2mph /  3.2km/h 5mph /  8km/h 91% 0in /  0.0mm 0 W/m2
03:35 36.1 °F /  2.3 °C 33.8 °F /  1 °C 30in /  1016.3hPa NNW 2.9mph /  4.7km/h 5mph /  8km/h 91% 0in /  0.0mm 0 W/m2
03:40 36.1 °F /  2.3 °C 33.8 °F /  1 °C 30in /  1015.9hPa WSW 4.9mph /  7.9km/h 6mph /  9.7km/h 91% 0in /  0.0mm 0 W/m2
03:45 36.1 °F /  2.3 °C 33.8 °F /  1 °C 30in /  1015.9hPa WNW 0.9mph /  1.4km/h 2mph /  3.2km/h 91% 0in /  0.0mm 0 W/m2
03:50 36.1 °F /  2.3 °C 33.8 °F /  1 °C 30in /  1015.9hPa NNW 0.9mph /  1.4km/h 5mph /  8km/h 91% 0in /  0.0mm 0 W/m2
03:55 36.3 °F /  2.4 °C 33.6 °F /  0.9 °C 30in /  1015.9hPa NNW 4.9mph /  7.9km/h 5mph /  8km/h 90% 0in /  0.0mm 0 W/m2
04:00 36.3 °F /  2.4 °C 33.6 °F /  0.9 °C 30in /  1015.6hPa South 2mph /  3.2km/h 6mph /  9.7km/h 90% 0in /  0.0mm 0 W/m2
04:05 36.3 °F /  2.4 °C 33.6 °F /  0.9 °C 30in /  1015.6hPa Calm   2mph /  3.2km/h 90% 0in /  0.0mm 0 W/m2
04:10 36.3 °F /  2.4 °C 33.6 °F /  0.9 °C 30in /  1015.6hPa Calm   4mph /  6.4km/h 90% 0in /  0.0mm 0 W/m2
04:15 36.5 °F /  2.5 °C 33.8 °F /  1 °C 30in /  1015.9hPa WSW 4mph /  6.4km/h 6mph /  9.7km/h 90% 0in /  0.0mm 0 W/m2
04:20 36.5 °F /  2.5 °C 33.8 °F /  1 °C 30in /  1015.9hPa WNW 2mph /  3.2km/h 7mph /  11.3km/h 90% 0in /  0.0mm 0 W/m2
04:25 36.7 °F /  2.6 °C 34 °F /  1.1 °C 30in /  1015.9hPa West 6mph /  9.7km/h 10mph /  16.1km/h 90% 0in /  0.0mm 0 W/m2
04:30 36.7 °F /  2.6 °C 33.8 °F /  1 °C 30in /  1015.9hPa Calm   7mph /  11.3km/h 89% 0in /  0.0mm 0 W/m2
04:35 36.7 °F /  2.6 °C 33.8 °F /  1 °C 30in /  1015.6hPa WSW 2mph /  3.2km/h 10mph /  16.1km/h 89% 0in /  0.0mm 0 W/m2
04:40 36.7 °F /  2.6 °C 33.8 °F /  1 °C 30in /  1015.2hPa Calm   2mph /  3.2km/h 89% 0in /  0.0mm 0 W/m2
04:45 36.9 °F /  2.7 °C 34 °F /  1.1 °C 30in /  1015.2hPa NNW 2.9mph /  4.7km/h 4mph /  6.4km/h 89% 0in /  0.0mm 0 W/m2
04:50 36.9 °F /  2.7 °C 34 °F /  1.1 °C 30in /  1015.2hPa Calm   9mph /  14.5km/h 89% 0in /  0.0mm 0 W/m2
04:55 36.7 °F /  2.6 °C 34 °F /  1.1 °C 30in /  1015.2hPa WSW 0.9mph /  1.4km/h 6mph /  9.7km/h 90% 0in /  0.0mm 0 W/m2
05:00 36.7 °F /  2.6 °C 34 °F /  1.1 °C 30in /  1015.2hPa Calm   6mph /  9.7km/h 90% 0in /  0.0mm 0 W/m2
05:05 36.5 °F /  2.5 °C 33.8 °F /  1 °C 30in /  1015.2hPa WNW 2.9mph /  4.7km/h 4mph /  6.4km/h 90% 0in /  0.0mm 0 W/m2
05:10 36.3 °F /  2.4 °C 34 °F /  1.1 °C 30in /  1015.2hPa NW 2mph /  3.2km/h 5mph /  8km/h 91% 0in /  0.0mm 0 W/m2
05:20 36.3 °F /  2.4 °C 34 °F /  1.1 °C 30in /  1015.6hPa NW 2mph /  3.2km/h 5mph /  8km/h 91% 0in /  0.0mm 0 W/m2
05:25 36.3 °F /  2.4 °C 34 °F /  1.1 °C 30in /  1015.2hPa ENE 4mph /  6.4km/h 5mph /  8km/h 91% 0in /  0.0mm 0 W/m2
05:30 36.3 °F /  2.4 °C 34 °F /  1.1 °C 30in /  1015.2hPa WSW 2.9mph /  4.7km/h 3mph /  4.8km/h 91% 0in /  0.0mm 0 W/m2
05:35 36.1 °F /  2.3 °C 33.8 °F /  1 °C 30in /  1015.2hPa NW 2.9mph /  4.7km/h 6mph /  9.7km/h 91% 0.01in /  0.2mm 0 W/m2
05:40 36.1 °F /  2.3 °C 33.8 °F /  1 °C 30in /  1015.2hPa NNW 4mph /  6.4km/h 5mph /  8km/h 91% 0.01in /  0.2mm 0 W/m2
05:45 35.8 °F /  2.1 °C 33.4 °F /  0.8 °C 30in /  1015.2hPa North 2mph /  3.2km/h 11mph /  17.7km/h 91% 0.01in /  0.2mm 0 W/m2
05:50 35.8 °F /  2.1 °C 33.4 °F /  0.8 °C 30in /  1014.9hPa WNW 2.9mph /  4.7km/h 4mph /  6.4km/h 91% 0.02in /  0.5mm 0 W/m2
05:55 35.6 °F /  2 °C 33.4 °F /  0.8 °C 30in /  1014.9hPa Calm   8mph /  12.9km/h 92% 0.02in /  0.5mm 0 W/m2
06:00 35.4 °F /  1.9 °C 33.3 °F /  0.7 °C 30in /  1014.9hPa ENE 2.9mph /  4.7km/h 4mph /  6.4km/h 92% 0.02in /  0.5mm 0 W/m2
06:05 35.2 °F /  1.8 °C 33.1 °F /  0.6 °C 30in /  1014.6hPa Calm   4mph /  6.4km/h 92% 0.02in /  0.5mm 0 W/m2
06:10 35.2 °F /  1.8 °C 33.1 °F /  0.6 °C 30in /  1014.6hPa East 2.9mph /  4.7km/h 9mph /  14.5km/h 92% 0.02in /  0.5mm 0 W/m2
06:15 35.1 °F /  1.7 °C 32.9 °F /  0.5 °C 30in /  1014.6hPa SSW 2mph /  3.2km/h 4mph /  6.4km/h 92% 0.03in /  0.8mm 0 W/m2
06:20 35.1 °F /  1.7 °C 32.9 °F /  0.5 °C 30in /  1014.6hPa WNW 0.9mph /  1.4km/h 3mph /  4.8km/h 92% 0.03in /  0.8mm 0 W/m2
06:30 35.1 °F /  1.7 °C 33.3 °F /  0.7 °C 30in /  1014.2hPa WSW 4mph /  6.4km/h 9mph /  14.5km/h 93% 0.05in /  1.3mm 0 W/m2
06:35 35.1 °F /  1.7 °C 33.3 °F /  0.7 °C 30in /  1014.2hPa WNW 6.9mph /  11.1km/h 8mph /  12.9km/h 93% 0.04in /  1.0mm 0 W/m2
06:40 35.2 °F /  1.8 °C 33.4 °F /  0.8 °C 30in /  1014.2hPa NNW 2mph /  3.2km/h 6mph /  9.7km/h 93% 0.05in /  1.3mm 0 W/m2
06:45 35.2 °F /  1.8 °C 33.4 °F /  0.8 °C 30in /  1014.2hPa NNW 2mph /  3.2km/h 8mph /  12.9km/h 93% 0.06in /  1.5mm 0 W/m2
06:50 35.2 °F /  1.8 °C 33.6 °F /  0.9 °C 30in /  1014.2hPa NNW 2.9mph /  4.7km/h 7mph /  11.3km/h 94% 0.06in /  1.5mm 0 W/m2
06:55 35.2 °F /  1.8 °C 33.6 °F /  0.9 °C 30in /  1014.2hPa SW 4.9mph /  7.9km/h 13mph /  20.9km/h 94% 0.06in /  1.5mm 0 W/m2
07:00 35.4 °F /  1.9 °C 33.8 °F /  1 °C 30in /  1014.2hPa NE 2.9mph /  4.7km/h 7mph /  11.3km/h 94% 0.07in /  1.8mm 0 W/m2
07:05 35.4 °F /  1.9 °C 33.8 °F /  1 °C 30in /  1014.2hPa NNW 4mph /  6.4km/h 7mph /  11.3km/h 94% 0.07in /  1.8mm 0 W/m2
07:10 35.6 °F /  2 °C 34 °F /  1.1 °C 30in /  1014.2hPa WNW 2mph /  3.2km/h 6mph /  9.7km/h 94% 0.07in /  1.8mm 0 W/m2
07:15 35.8 °F /  2.1 °C 34.2 °F /  1.2 °C 30in /  1014.2hPa WSW 4.9mph /  7.9km/h 12mph /  19.3km/h 94% 0.07in /  1.8mm 0 W/m2
07:20 36 °F /  2.2 °C 34.3 °F /  1.3 °C 30in /  1014.2hPa West 6mph /  9.7km/h 12mph /  19.3km/h 94% 0.07in /  1.8mm 0 W/m2
07:25 36.1 °F /  2.3 °C 34.5 °F /  1.4 °C 30in /  1014.2hPa WSW 4mph /  6.4km/h 11mph /  17.7km/h 94% 0.06in /  1.5mm 0 W/m2
07:30 36.3 °F /  2.4 °C 34.7 °F /  1.5 °C 29.9in /  1013.9hPa ENE 2.9mph /  4.7km/h 10mph /  16.1km/h 94% 0.06in /  1.5mm 0 W/m2
07:35 36.3 °F /  2.4 °C 34.7 °F /  1.5 °C 29.9in /  1013.9hPa NW 2.9mph /  4.7km/h 7mph /  11.3km/h 94% 0.06in /  1.5mm 0 W/m2
07:40 36.5 °F /  2.5 °C 34.9 °F /  1.6 °C 29.9in /  1013.9hPa WNW 2.9mph /  4.7km/h 17mph /  27.4km/h 94% 0.06in /  1.5mm 0 W/m2
07:45 36.7 °F /  2.6 °C 35.1 °F /  1.7 °C 29.9in /  1013.9hPa NW 2.9mph /  4.7km/h 7mph /  11.3km/h 94% 0.06in /  1.5mm 0 W/m2
07:50 36.7 °F /  2.6 °C 35.1 °F /  1.7 °C 29.9in /  1013.5hPa WNW 4mph /  6.4km/h 17mph /  27.4km/h 94% 0.05in /  1.3mm 0 W/m2
07:55 36.7 °F /  2.6 °C 35.1 °F /  1.7 °C 29.9in /  1013.9hPa WNW 4.9mph /  7.9km/h 10mph /  16.1km/h 94% 0.05in /  1.3mm 0 W/m2
08:00 36.9 °F /  2.7 °C 35.2 °F /  1.8 °C 30in /  1014.2hPa WSW 6.9mph /  11.1km/h 12mph /  19.3km/h 94% 0.04in /  1.0mm 0 W/m2
08:05 36.9 °F /  2.7 °C 35.2 °F /  1.8 °C 30in /  1014.2hPa West 4mph /  6.4km/h 10mph /  16.1km/h 94% 0.03in /  0.8mm 0 W/m2
08:10 37 °F /  2.8 °C 35.4 °F /  1.9 °C 30in /  1014.2hPa WNW 4mph /  6.4km/h 13mph /  20.9km/h 94% 0.03in /  0.8mm 0 W/m2
08:20 37 °F /  2.8 °C 35.4 °F /  1.9 °C 30in /  1014.2hPa SSW 0.9mph /  1.4km/h 11mph /  17.7km/h 94% 0.03in /  0.8mm 0 W/m2
08:30 37.2 °F /  2.9 °C 35.6 °F /  2 °C 30in /  1014.6hPa West 11mph /  17.7km/h 14mph /  22.5km/h 94% 0.02in /  0.5mm 0 W/m2
08:35 37.2 °F /  2.9 °C 35.6 °F /  2 °C 30in /  1014.2hPa WSW 8.9mph /  14.3km/h 11mph /  17.7km/h 94% 0.02in /  0.5mm 0 W/m2
08:40 37.2 °F /  2.9 °C 35.6 °F /  2 °C 30in /  1014.2hPa WNW 4.9mph /  7.9km/h 10mph /  16.1km/h 94% 0.02in /  0.5mm 5 W/m2
08:45 37.2 °F /  2.9 °C 35.6 °F /  2 °C 30in /  1014.6hPa SW 4.9mph /  7.9km/h 14mph /  22.5km/h 94% 0.02in /  0.5mm 5 W/m2
08:50 37.2 °F /  2.9 °C 35.6 °F /  2 °C 30in /  1014.2hPa SW 4mph /  6.4km/h 10mph /  16.1km/h 94% 0.02in /  0.5mm 5 W/m2
08:55 37.2 °F /  2.9 °C 35.6 °F /  2 °C 30in /  1014.2hPa West 6mph /  9.7km/h 11mph /  17.7km/h 94% 0.01in /  0.2mm 7 W/m2
09:00 37.2 °F /  2.9 °C 35.6 °F /  2 °C 30in /  1014.2hPa West 2.9mph /  4.7km/h 10mph /  16.1km/h 94% 0.01in /  0.2mm 11 W/m2
09:05 37.4 °F /  3 °C 35.8 °F /  2.1 °C 30in /  1014.2hPa WNW 8.1mph /  13km/h 11mph /  17.7km/h 94% 0.02in /  0.5mm 12 W/m2
09:10 37.4 °F /  3 °C 35.8 °F /  2.1 °C 30in /  1014.2hPa NNW 6mph /  9.7km/h 11mph /  17.7km/h 94% 0.02in /  0.5mm 16 W/m2
09:15 37.6 °F /  3.1 °C 36 °F /  2.2 °C 30in /  1014.2hPa NW 6mph /  9.7km/h 8mph /  12.9km/h 94% 0.02in /  0.5mm 18 W/m2
09:20 37.6 °F /  3.1 °C 36 °F /  2.2 °C 30in /  1014.2hPa WSW 6mph /  9.7km/h 16mph /  25.7km/h 94% 0.01in /  0.2mm 21 W/m2
09:25 37.6 °F /  3.1 °C 36 °F /  2.2 °C 30in /  1014.2hPa West 10.1mph /  16.3km/h 18mph /  29km/h 94% 0.01in /  0.2mm 25 W/m2
09:30 37.8 °F /  3.2 °C 36.1 °F /  2.3 °C 30in /  1014.2hPa WNW 4.9mph /  7.9km/h 9mph /  14.5km/h 94% 0.01in /  0.2mm 25 W/m2
09:35 37.8 °F /  3.2 °C 36.1 °F /  2.3 °C 30in /  1014.2hPa WNW 8.9mph /  14.3km/h 18mph /  29km/h 94% 0.02in /  0.5mm 25 W/m2
09:40 37.8 °F /  3.2 °C 36.1 °F /  2.3 °C 30in /  1014.2hPa NW 6mph /  9.7km/h 13mph /  20.9km/h 94% 0.02in /  0.5mm 30 W/m2
09:45 37.8 °F /  3.2 °C 36.1 °F /  2.3 °C 29.9in /  1013.9hPa WNW 4mph /  6.4km/h 7mph /  11.3km/h 94% 0.02in /  0.5mm 23 W/m2
09:50 37.9 °F /  3.3 °C 36.3 °F /  2.4 °C 29.9in /  1013.9hPa WSW 4mph /  6.4km/h 13mph /  20.9km/h 94% 0.02in /  0.5mm 30 W/m2
09:55 37.9 °F /  3.3 °C 36.3 °F /  2.4 °C 30in /  1014.2hPa WSW 15mph /  24.1km/h 15mph /  24.1km/h 94% 0.02in /  0.5mm 39 W/m2
10:01 37.9 °F /  3.3 °C 36.3 °F /  2.4 °C 29.9in /  1013.9hPa West 4mph /  6.4km/h 14mph /  22.5km/h 94% 0.02in /  0.5mm 35 W/m2
10:06 37.9 °F /  3.3 °C 36.3 °F /  2.4 °C 29.9in /  1013.9hPa WSW 2.9mph /  4.7km/h 15mph /  24.1km/h 94% 0.02in /  0.5mm 30 W/m2
10:11 37.9 °F /  3.3 °C 36.3 °F /  2.4 °C 29.9in /  1013.9hPa WNW 11mph /  17.7km/h 14mph /  22.5km/h 94% 0.02in /  0.5mm 26 W/m2
10:16 37.9 °F /  3.3 °C 36.3 °F /  2.4 °C 29.9in /  1013.9hPa WSW 4.9mph /  7.9km/h 10mph /  16.1km/h 94% 0.02in /  0.5mm 25 W/m2
10:21 37.9 °F /  3.3 °C 36.3 °F /  2.4 °C 29.9in /  1013.9hPa West 2mph /  3.2km/h 11mph /  17.7km/h 94% 0.02in /  0.5mm 30 W/m2
10:26 37.9 °F /  3.3 °C 36.3 °F /  2.4 °C 30in /  1014.2hPa NW 2.9mph /  4.7km/h 12mph /  19.3km/h 94% 0.02in /  0.5mm 39 W/m2
10:31 37.9 °F /  3.3 °C 36.3 °F /  2.4 °C 29.9in /  1013.9hPa WNW 6.9mph /  11.1km/h 11mph /  17.7km/h 94% 0.02in /  0.5mm 46 W/m2
10:36 37.9 °F /  3.3 °C 36.3 °F /  2.4 °C 30in /  1014.2hPa West 4mph /  6.4km/h 10mph /  16.1km/h 94% 0.02in /  0.5mm 40 W/m2
10:41 37.9 °F /  3.3 °C 36.3 °F /  2.4 °C 29.9in /  1013.9hPa NNW 8.1mph /  13km/h 11mph /  17.7km/h 94% 0.02in /  0.5mm 32 W/m2
10:46 37.9 °F /  3.3 °C 36.3 °F /  2.4 °C 29.9in /  1013.9hPa NW 4mph /  6.4km/h 11mph /  17.7km/h 94% 0.01in /  0.2mm 35 W/m2
10:51 37.9 °F /  3.3 °C 36.3 °F /  2.4 °C 29.9in /  1013.9hPa WSW 4mph /  6.4km/h 10mph /  16.1km/h 94% 0.01in /  0.2mm 39 W/m2
10:56 37.9 °F /  3.3 °C 36.3 °F /  2.4 °C 29.9in /  1013.9hPa WNW 4mph /  6.4km/h 4mph /  6.4km/h 94% 0.01in /  0.2mm 32 W/m2
11:01 37.9 °F /  3.3 °C 36.3 °F /  2.4 °C 29.9in /  1013.9hPa NW 2mph /  3.2km/h 8mph /  12.9km/h 94% 0.02in /  0.5mm 28 W/m2
11:06 37.9 °F /  3.3 °C 36.3 °F /  2.4 °C 29.9in /  1013.5hPa West 8.1mph /  13km/h 10mph /  16.1km/h 94% 0.02in /  0.5mm 33 W/m2
11:11 37.9 °F /  3.3 °C 36.3 °F /  2.4 °C 29.9in /  1013.5hPa NNW 4mph /  6.4km/h 10mph /  16.1km/h 94% 0.01in /  0.2mm 54 W/m2
11:16 37.9 °F /  3.3 °C 36.3 °F /  2.4 °C 29.9in /  1013.2hPa West 6.9mph /  11.1km/h 12mph /  19.3km/h 94% 0.01in /  0.2mm 58 W/m2
11:21 37.9 °F /  3.3 °C 36.3 °F /  2.4 °C 29.9in /  1013.5hPa SW 4mph /  6.4km/h 16mph /  25.7km/h 94% 0.01in /  0.2mm 42 W/m2
11:26 37.9 °F /  3.3 °C 36.3 °F /  2.4 °C 29.9in /  1013.5hPa SSW 2mph /  3.2km/h 12mph /  19.3km/h 94% 0.01in /  0.2mm 53 W/m2
11:31 37.9 °F /  3.3 °C 36.3 °F /  2.4 °C 29.9in /  1013.5hPa WNW 6.9mph /  11.1km/h 16mph /  25.7km/h 94% 0.02in /  0.5mm 53 W/m2
11:36 37.9 °F /  3.3 °C 36.3 °F /  2.4 °C 29.9in /  1013.2hPa West 6mph /  9.7km/h 11mph /  17.7km/h 94% 0.02in /  0.5mm 35 W/m2
11:41 37.9 °F /  3.3 °C 36.3 °F /  2.4 °C 29.9in /  1013.2hPa WNW 8.1mph /  13km/h 16mph /  25.7km/h 94% 0.02in /  0.5mm 40 W/m2
11:46 37.9 °F /  3.3 °C 36.3 °F /  2.4 °C 29.9in /  1013.2hPa WNW 6.9mph /  11.1km/h 9mph /  14.5km/h 94% 0.02in /  0.5mm 49 W/m2
11:51 37.9 °F /  3.3 °C 36.3 °F /  2.4 °C 29.9in /  1013.2hPa WSW 4mph /  6.4km/h 12mph /  19.3km/h 94% 0.02in /  0.5mm 60 W/m2
11:56 37.9 °F /  3.3 °C 36.3 °F /  2.4 °C 29.9in /  1013.2hPa WNW 4mph /  6.4km/h 13mph /  20.9km/h 94% 0.02in /  0.5mm 53 W/m2
12:01 38.1 °F /  3.4 °C 36.5 °F /  2.5 °C 29.9in /  1013.5hPa NW 8.1mph /  13km/h 11mph /  17.7km/h 94% 0.01in /  0.2mm 42 W/m2
12:06 38.1 °F /  3.4 °C 36.5 °F /  2.5 °C 29.9in /  1013.5hPa West 8.1mph /  13km/h 11mph /  17.7km/h 94% 0.01in /  0.2mm 35 W/m2
12:11 38.1 °F /  3.4 °C 36.5 °F /  2.5 °C 29.9in /  1013.2hPa WNW 4.9mph /  7.9km/h 14mph /  22.5km/h 94% 0.01in /  0.2mm 42 W/m2
12:16 38.1 °F /  3.4 °C 36.5 °F /  2.5 °C 29.9in /  1013.2hPa WNW 8.1mph /  13km/h 8mph /  12.9km/h 94% 0.01in /  0.2mm 39 W/m2
12:21 38.1 °F /  3.4 °C 36.5 °F /  2.5 °C 29.9in /  1013.2hPa West 2mph /  3.2km/h 9mph /  14.5km/h 94% 0.01in /  0.2mm 35 W/m2
12:26 38.3 °F /  3.5 °C 36.7 °F /  2.6 °C 29.9in /  1013.2hPa NNE 4mph /  6.4km/h 12mph /  19.3km/h 94% 0.01in /  0.2mm 30 W/m2
12:31 38.3 °F /  3.5 °C 36.7 °F /  2.6 °C 29.9in /  1013.2hPa West 6mph /  9.7km/h 8mph /  12.9km/h 94% 0in /  0.0mm 30 W/m2
12:36 38.3 °F /  3.5 °C 36.7 °F /  2.6 °C 29.9in /  1013.2hPa SSW 4mph /  6.4km/h 10mph /  16.1km/h 94% 0in /  0.0mm 32 W/m2
12:41 38.3 °F /  3.5 °C 36.7 °F /  2.6 °C 29.9in /  1013.2hPa Calm   15mph /  24.1km/h 94% 0in /  0.0mm 37 W/m2
12:46 38.5 °F /  3.6 °C 36.9 °F /  2.7 °C 29.9in /  1013.2hPa WNW 10.1mph /  16.3km/h 10mph /  16.1km/h 94% 0in /  0.0mm 35 W/m2
12:51 38.5 °F /  3.6 °C 36.9 °F /  2.7 °C 29.9in /  1013.2hPa West 8.9mph /  14.3km/h 13mph /  20.9km/h 94% 0in /  0.0mm 37 W/m2
12:56 38.5 °F /  3.6 °C 36.9 °F /  2.7 °C 29.9in /  1013.2hPa West 4mph /  6.4km/h 14mph /  22.5km/h 94% 0.01in /  0.2mm 35 W/m2
13:01 38.5 °F /  3.6 °C 36.9 °F /  2.7 °C 29.9in /  1013.2hPa WNW 6.9mph /  11.1km/h 12mph /  19.3km/h 94% 0.01in /  0.2mm 39 W/m2
13:06 38.7 °F /  3.7 °C 37 °F /  2.8 °C 29.9in /  1013.2hPa WSW 4.9mph /  7.9km/h 19mph /  30.6km/h 94% 0.01in /  0.2mm 42 W/m2
13:11 38.7 °F /  3.7 °C 37 °F /  2.8 °C 29.9in /  1013.2hPa WNW 6.9mph /  11.1km/h 11mph /  17.7km/h 94% 0.01in /  0.2mm 35 W/m2
13:16 38.7 °F /  3.7 °C 37 °F /  2.8 °C 29.9in /  1013.2hPa West 6.9mph /  11.1km/h 12mph /  19.3km/h 94% 0.01in /  0.2mm 39 W/m2
13:21 38.7 °F /  3.7 °C 37 °F /  2.8 °C 29.9in /  1013.2hPa NW 10.1mph /  16.3km/h 11mph /  17.7km/h 94% 0.01in /  0.2mm 35 W/m2
13:31 38.7 °F /  3.7 °C 37 °F /  2.8 °C 29.9in /  1013.2hPa NW 8.1mph /  13km/h 17mph /  27.4km/h 94% 0.01in /  0.2mm 35 W/m2
13:36 38.7 °F /  3.7 °C 37 °F /  2.8 °C 29.9in /  1013.2hPa NNW 8.9mph /  14.3km/h 10mph /  16.1km/h 94% 0.01in /  0.2mm 32 W/m2
13:41 38.7 °F /  3.7 °C 37 °F /  2.8 °C 29.9in /  1013.2hPa WSW 4.9mph /  7.9km/h 16mph /  25.7km/h 94% 0.01in /  0.2mm 33 W/m2
13:46 38.8 °F /  3.8 °C 37.2 °F /  2.9 °C 29.9in /  1013.2hPa WNW 2mph /  3.2km/h 8mph /  12.9km/h 94% 0.01in /  0.2mm 32 W/m2
13:51 38.8 °F /  3.8 °C 37.2 °F /  2.9 °C 29.9in /  1013.2hPa West 6.9mph /  11.1km/h 16mph /  25.7km/h 94% 0.01in /  0.2mm 26 W/m2
13:56 38.8 °F /  3.8 °C 37.2 °F /  2.9 °C 29.9in /  1013.2hPa NW 8.1mph /  13km/h 15mph /  24.1km/h 94% 0in /  0.0mm 30 W/m2
14:01 38.8 °F /  3.8 °C 37.2 °F /  2.9 °C 29.9in /  1013.2hPa WSW 2.9mph /  4.7km/h 16mph /  25.7km/h 94% 0in /  0.0mm 28 W/m2
14:06 39 °F /  3.9 °C 37.4 °F /  3 °C 29.9in /  1013.2hPa WSW 8.1mph /  13km/h 13mph /  20.9km/h 94% 0in /  0.0mm 26 W/m2
14:11 39 °F /  3.9 °C 37.4 °F /  3 °C 29.9in /  1013.2hPa WSW 4.9mph /  7.9km/h 9mph /  14.5km/h 94% 0in /  0.0mm 33 W/m2
14:16 39 °F /  3.9 °C 37.4 °F /  3 °C 29.9in /  1013.2hPa WNW 8.1mph /  13km/h 13mph /  20.9km/h 94% 0in /  0.0mm 28 W/m2
14:21 39 °F /  3.9 °C 37.4 °F /  3 °C 29.9in /  1012.9hPa WNW 13mph /  20.9km/h 16mph /  25.7km/h 94% 0in /  0.0mm 26 W/m2
14:26 39 °F /  3.9 °C 37.4 °F /  3 °C 29.9in /  1012.9hPa WNW 14.1mph /  22.7km/h 15mph /  24.1km/h 94% 0in /  0.0mm 26 W/m2
14:31 39 °F /  3.9 °C 37.4 °F /  3 °C 29.9in /  1012.9hPa NNE 2mph /  3.2km/h 4mph /  6.4km/h 94% 0in /  0.0mm 23 W/m2
14:41 39.4 °F /  4.1 °C 38.1 °F /  3.4 °C 29.9in /  1012.9hPa Calm   10mph /  16.1km/h 95% 0in /  0.0mm 25 W/m2
14:46 39.4 °F /  4.1 °C 38.1 °F /  3.4 °C 29.9in /  1013.2hPa NW 4.9mph /  7.9km/h 14mph /  22.5km/h 95% 0in /  0.0mm 23 W/m2
14:51 39.6 °F /  4.2 °C 38.3 °F /  3.5 °C 29.9in /  1012.9hPa WNW 4.9mph /  7.9km/h 8mph /  12.9km/h 95% 0in /  0.0mm 21 W/m2
15:06 39.6 °F /  4.2 °C 38.3 °F /  3.5 °C 29.9in /  1012.9hPa SW 2mph /  3.2km/h 8mph /  12.9km/h 95% 0in /  0.0mm 28 W/m2
15:11 39.6 °F /  4.2 °C 38.3 °F /  3.5 °C 29.9in /  1012.9hPa NNW 4mph /  6.4km/h 11mph /  17.7km/h 95% 0in /  0.0mm 21 W/m2
15:16 39.7 °F /  4.3 °C 38.5 °F /  3.6 °C 29.9in /  1012.9hPa West 2.9mph /  4.7km/h 14mph /  22.5km/h 95% 0in /  0.0mm 16 W/m2
15:21 39.7 °F /  4.3 °C 38.5 °F /  3.6 °C 29.9in /  1012.9hPa West 11mph /  17.7km/h 11mph /  17.7km/h 95% 0in /  0.0mm 16 W/m2
15:26 39.7 °F /  4.3 °C 38.5 °F /  3.6 °C 29.9in /  1012.9hPa West 4mph /  6.4km/h 16mph /  25.7km/h 95% 0in /  0.0mm 18 W/m2
15:31 39.7 °F /  4.3 °C 38.5 °F /  3.6 °C 29.9in /  1012.9hPa SW 0.9mph /  1.4km/h 11mph /  17.7km/h 95% 0in /  0.0mm 18 W/m2
15:36 39.9 °F /  4.4 °C 38.7 °F /  3.7 °C 29.9in /  1012.9hPa NNW 8.1mph /  13km/h 15mph /  24.1km/h 95% 0in /  0.0mm 14 W/m2
15:41 39.9 °F /  4.4 °C 38.7 °F /  3.7 °C 29.9in /  1013.2hPa West 2.9mph /  4.7km/h 7mph /  11.3km/h 95% 0in /  0.0mm 12 W/m2
15:46 40.1 °F /  4.5 °C 38.8 °F /  3.8 °C 29.9in /  1013.2hPa WNW 8.1mph /  13km/h 12mph /  19.3km/h 95% 0in /  0.0mm 14 W/m2
15:51 40.1 °F /  4.5 °C 38.8 °F /  3.8 °C 29.9in /  1012.9hPa NW 11mph /  17.7km/h 15mph /  24.1km/h 95% 0in /  0.0mm 19 W/m2
15:56 40.3 °F /  4.6 °C 39 °F /  3.9 °C 29.9in /  1012.9hPa NNW 4.9mph /  7.9km/h 8mph /  12.9km/h 95% 0in /  0.0mm 23 W/m2
16:01 40.3 °F /  4.6 °C 39 °F /  3.9 °C 29.9in /  1012.9hPa SW 4mph /  6.4km/h 15mph /  24.1km/h 95% 0.01in /  0.2mm 21 W/m2
16:06 40.3 °F /  4.6 °C 39 °F /  3.9 °C 29.9in /  1012.9hPa WNW 2mph /  3.2km/h 9mph /  14.5km/h 95% 0.01in /  0.2mm 23 W/m2
16:11 40.3 °F /  4.6 °C 39 °F /  3.9 °C 29.9in /  1012.9hPa West 2.9mph /  4.7km/h 12mph /  19.3km/h 95% 0.01in /  0.2mm 18 W/m2
16:16 40.3 °F /  4.6 °C 39 °F /  3.9 °C 29.9in /  1012.9hPa West 6mph /  9.7km/h 15mph /  24.1km/h 95% 0.01in /  0.2mm 12 W/m2
16:21 40.5 °F /  4.7 °C 39.2 °F /  4 °C 29.9in /  1012.9hPa NW 4.9mph /  7.9km/h 14mph /  22.5km/h 95% 0.01in /  0.2mm 9 W/m2
16:26 40.5 °F /  4.7 °C 39.2 °F /  4 °C 29.9in /  1012.9hPa NW 11mph /  17.7km/h 15mph /  24.1km/h 95% 0.01in /  0.2mm 11 W/m2
16:31 40.5 °F /  4.7 °C 39.2 °F /  4 °C 29.9in /  1012.9hPa WNW 2.9mph /  4.7km/h 10mph /  16.1km/h 95% 0.01in /  0.2mm 7 W/m2
16:36 40.5 °F /  4.7 °C 39.2 °F /  4 °C 29.9in /  1012.9hPa NW 10.1mph /  16.3km/h 10mph /  16.1km/h 95% 0.01in /  0.2mm 0 W/m2
16:41 40.6 °F /  4.8 °C 39.4 °F /  4.1 °C 29.9in /  1012.9hPa West 6mph /  9.7km/h 8mph /  12.9km/h 95% 0.01in /  0.2mm 0 W/m2
16:46 40.6 °F /  4.8 °C 39.4 °F /  4.1 °C 29.9in /  1012.9hPa WNW 8.1mph /  13km/h 9mph /  14.5km/h 95% 0.01in /  0.2mm 0 W/m2
16:51 40.6 °F /  4.8 °C 39.4 °F /  4.1 °C 29.9in /  1013.2hPa WNW 10.1mph /  16.3km/h 13mph /  20.9km/h 95% 0.01in /  0.2mm 0 W/m2
16:56 40.6 °F /  4.8 °C 39.4 °F /  4.1 °C 29.9in /  1012.9hPa SW 4.9mph /  7.9km/h 9mph /  14.5km/h 95% 0.01in /  0.2mm 0 W/m2
17:01 40.6 °F /  4.8 °C 39.4 °F /  4.1 °C 29.9in /  1012.9hPa WNW 10.1mph /  16.3km/h 14mph /  22.5km/h 95% 0.01in /  0.2mm 0 W/m2
17:06 40.8 °F /  4.9 °C 39.6 °F /  4.2 °C 29.9in /  1012.9hPa North 12.1mph /  19.5km/h 14mph /  22.5km/h 95% 0.01in /  0.2mm 0 W/m2
17:11 40.8 °F /  4.9 °C 39.6 °F /  4.2 °C 29.9in /  1013.2hPa NW 4mph /  6.4km/h 13mph /  20.9km/h 95% 0.01in /  0.2mm 0 W/m2
17:16 40.8 °F /  4.9 °C 39.6 °F /  4.2 °C 29.9in /  1012.9hPa NW 4.9mph /  7.9km/h 14mph /  22.5km/h 95% 0.01in /  0.2mm 0 W/m2
17:21 40.8 °F /  4.9 °C 39.6 °F /  4.2 °C 29.9in /  1013.2hPa NW 4.9mph /  7.9km/h 11mph /  17.7km/h 95% 0.01in /  0.2mm 0 W/m2
17:26 41 °F /  5 °C 39.7 °F /  4.3 °C 29.9in /  1012.9hPa NW 10.1mph /  16.3km/h 10mph /  16.1km/h 95% 0.01in /  0.2mm 0 W/m2
17:32 41.2 °F /  5.1 °C 39.9 °F /  4.4 °C 29.9in /  1013.2hPa West 4mph /  6.4km/h 12mph /  19.3km/h 95% 0.01in /  0.2mm 0 W/m2
17:37 41.2 °F /  5.1 °C 39.9 °F /  4.4 °C 29.9in /  1012.9hPa NNW 0.9mph /  1.4km/h 13mph /  20.9km/h 95% 0.01in /  0.2mm 0 W/m2
17:42 41.2 °F /  5.1 °C 39.9 °F /  4.4 °C 29.9in /  1012.9hPa SW 2.9mph /  4.7km/h 14mph /  22.5km/h 95% 0.01in /  0.2mm 0 W/m2
17:47 41.2 °F /  5.1 °C 39.9 °F /  4.4 °C 29.9in /  1012.9hPa NW 6mph /  9.7km/h 15mph /  24.1km/h 95% 0.01in /  0.2mm 0 W/m2
17:52 41.4 °F /  5.2 °C 40.1 °F /  4.5 °C 29.9in /  1012.5hPa North 8.1mph /  13km/h 10mph /  16.1km/h 95% 0.01in /  0.2mm 0 W/m2
17:57 41.4 °F /  5.2 °C 40.1 °F /  4.5 °C 29.9in /  1012.9hPa WNW 4mph /  6.4km/h 9mph /  14.5km/h 95% 0.01in /  0.2mm 0 W/m2
18:02 41.4 °F /  5.2 °C 40.1 °F /  4.5 °C 29.9in /  1012.5hPa NW 8.1mph /  13km/h 12mph /  19.3km/h 95% 0in /  0.0mm 0 W/m2
18:07 41.5 °F /  5.3 °C 40.3 °F /  4.6 °C 29.9in /  1012.5hPa West 4mph /  6.4km/h 11mph /  17.7km/h 95% 0.01in /  0.2mm 0 W/m2
18:12 41.5 °F /  5.3 °C 40.3 °F /  4.6 °C 29.9in /  1012.5hPa WNW 8.9mph /  14.3km/h 14mph /  22.5km/h 95% 0.01in /  0.2mm 0 W/m2
18:17 41.5 °F /  5.3 °C 40.3 °F /  4.6 °C 29.9in /  1012.5hPa WNW 2.9mph /  4.7km/h 11mph /  17.7km/h 95% 0.01in /  0.2mm 0 W/m2
18:22 41.5 °F /  5.3 °C 40.3 °F /  4.6 °C 29.9in /  1012.5hPa West 2.9mph /  4.7km/h 10mph /  16.1km/h 95% 0.01in /  0.2mm 0 W/m2
18:27 41.7 °F /  5.4 °C 40.5 °F /  4.7 °C 29.9in /  1012.5hPa NW 2mph /  3.2km/h 10mph /  16.1km/h 95% 0.01in /  0.2mm 0 W/m2
18:32 41.7 °F /  5.4 °C 40.5 °F /  4.7 °C 29.9in /  1012.5hPa SW 4mph /  6.4km/h 16mph /  25.7km/h 95% 0.01in /  0.2mm 0 W/m2
18:37 41.7 °F /  5.4 °C 40.5 °F /  4.7 °C 29.9in /  1012.5hPa NNW 6mph /  9.7km/h 9mph /  14.5km/h 95% 0.01in /  0.2mm 0 W/m2
18:42 41.7 °F /  5.4 °C 40.5 °F /  4.7 °C 29.9in /  1012.5hPa WNW 4mph /  6.4km/h 16mph /  25.7km/h 95% 0.01in /  0.2mm 0 W/m2
18:47 41.7 °F /  5.4 °C 40.5 °F /  4.7 °C 29.9in /  1012.5hPa WNW 2mph /  3.2km/h 4mph /  6.4km/h 95% 0.01in /  0.2mm 0 W/m2
18:52 41.7 °F /  5.4 °C 40.5 °F /  4.7 °C 29.9in /  1012.5hPa West 2.9mph /  4.7km/h 10mph /  16.1km/h 95% 0.01in /  0.2mm 0 W/m2
18:57 41.7 °F /  5.4 °C 40.5 °F /  4.7 °C 29.9in /  1012.9hPa WNW 4mph /  6.4km/h 7mph /  11.3km/h 95% 0.01in /  0.2mm 0 W/m2
19:02 41.7 °F /  5.4 °C 40.5 °F /  4.7 °C 29.9in /  1012.9hPa West 6mph /  9.7km/h 15mph /  24.1km/h 95% 0.01in /  0.2mm 0 W/m2
19:07 41.7 °F /  5.4 °C 40.5 °F /  4.7 °C 29.9in /  1012.5hPa WNW 4mph /  6.4km/h 9mph /  14.5km/h 95% 0in /  0.0mm 0 W/m2
19:12 41.7 °F /  5.4 °C 40.5 °F /  4.7 °C 29.9in /  1012.5hPa NNW 4mph /  6.4km/h 11mph /  17.7km/h 95% 0in /  0.0mm 0 W/m2
19:17 41.7 °F /  5.4 °C 40.5 °F /  4.7 °C 29.9in /  1012.5hPa West 2mph /  3.2km/h 10mph /  16.1km/h 95% 0in /  0.0mm 0 W/m2
19:22 41.7 °F /  5.4 °C 40.5 °F /  4.7 °C 29.9in /  1012.5hPa West 2.9mph /  4.7km/h 9mph /  14.5km/h 95% 0in /  0.0mm 0 W/m2
19:27 41.7 °F /  5.4 °C 40.5 °F /  4.7 °C 29.9in /  1012.9hPa West 6mph /  9.7km/h 13mph /  20.9km/h 95% 0in /  0.0mm 0 W/m2
19:32 41.9 °F /  5.5 °C 40.6 °F /  4.8 °C 29.9in /  1012.5hPa NW 4mph /  6.4km/h 9mph /  14.5km/h 95% 0in /  0.0mm 0 W/m2
19:37 41.9 °F /  5.5 °C 40.6 °F /  4.8 °C 29.9in /  1012.5hPa South 2mph /  3.2km/h 13mph /  20.9km/h 95% 0in /  0.0mm 0 W/m2
19:42 41.9 °F /  5.5 °C 40.6 °F /  4.8 °C 29.9in /  1012.5hPa Calm   7mph /  11.3km/h 95% 0in /  0.0mm 0 W/m2
19:47 41.9 °F /  5.5 °C 40.6 °F /  4.8 °C 29.9in /  1012.5hPa WSW 2.9mph /  4.7km/h 13mph /  20.9km/h 95% 0in /  0.0mm 0 W/m2
19:52 41.9 °F /  5.5 °C 40.6 °F /  4.8 °C 29.9in /  1012.5hPa West 0.9mph /  1.4km/h 9mph /  14.5km/h 95% 0in /  0.0mm 0 W/m2
19:57 42.1 °F /  5.6 °C 40.8 °F /  4.9 °C 29.9in /  1012.2hPa NNW 4mph /  6.4km/h 13mph /  20.9km/h 95% 0in /  0.0mm 0 W/m2
20:02 42.1 °F /  5.6 °C 40.8 °F /  4.9 °C 29.9in /  1012.5hPa South 8.1mph /  13km/h 12mph /  19.3km/h 95% 0in /  0.0mm 0 W/m2
20:07 42.1 °F /  5.6 °C 40.8 °F /  4.9 °C 29.9in /  1012.9hPa West 6mph /  9.7km/h 13mph /  20.9km/h 95% 0in /  0.0mm 0 W/m2
20:12 42.1 °F /  5.6 °C 40.8 °F /  4.9 °C 29.9in /  1012.9hPa NW 2mph /  3.2km/h 8mph /  12.9km/h 95% 0.01in /  0.2mm 0 W/m2
20:17 42.1 °F /  5.6 °C 40.8 °F /  4.9 °C 29.9in /  1012.5hPa NW 0.9mph /  1.4km/h 8mph /  12.9km/h 95% 0.01in /  0.2mm 0 W/m2
20:22 42.3 °F /  5.7 °C 41 °F /  5 °C 29.9in /  1012.5hPa NE 2mph /  3.2km/h 9mph /  14.5km/h 95% 0.01in /  0.2mm 0 W/m2
20:27 42.3 °F /  5.7 °C 41 °F /  5 °C 29.9in /  1012.5hPa West 6.9mph /  11.1km/h 9mph /  14.5km/h 95% 0.01in /  0.2mm 0 W/m2
20:32 42.3 °F /  5.7 °C 41 °F /  5 °C 29.9in /  1012.5hPa NNW 4mph /  6.4km/h 12mph /  19.3km/h 95% 0.01in /  0.2mm 0 W/m2
20:37 42.3 °F /  5.7 °C 41 °F /  5 °C 29.9in /  1012.5hPa West 6.9mph /  11.1km/h 9mph /  14.5km/h 95% 0.01in /  0.2mm 0 W/m2
20:42 42.3 °F /  5.7 °C 41 °F /  5 °C 29.9in /  1012.2hPa NNE 2.9mph /  4.7km/h 12mph /  19.3km/h 95% 0.01in /  0.2mm 0 W/m2
20:47 42.3 °F /  5.7 °C 41 °F /  5 °C 29.9in /  1012.2hPa West 6mph /  9.7km/h 10mph /  16.1km/h 95% 0.01in /  0.2mm 0 W/m2
20:52 42.3 °F /  5.7 °C 41 °F /  5 °C 29.9in /  1012.5hPa WSW 6mph /  9.7km/h 10mph /  16.1km/h 95% 0.01in /  0.2mm 0 W/m2
20:57 42.4 °F /  5.8 °C 40.8 °F /  4.9 °C 29.9in /  1012.5hPa WSW 4mph /  6.4km/h 19mph /  30.6km/h 94% 0.01in /  0.2mm 0 W/m2
21:02 42.4 °F /  5.8 °C 40.8 °F /  4.9 °C 29.9in /  1012.2hPa WNW 8.1mph /  13km/h 8mph /  12.9km/h 94% 0.01in /  0.2mm 0 W/m2
21:07 42.4 °F /  5.8 °C 40.8 °F /  4.9 °C 29.9in /  1012.2hPa West 4mph /  6.4km/h 16mph /  25.7km/h 94% 0.01in /  0.2mm 0 W/m2
21:12 42.4 °F /  5.8 °C 40.8 °F /  4.9 °C 29.9in /  1012.2hPa NW 4mph /  6.4km/h 10mph /  16.1km/h 94% 0in /  0.0mm 0 W/m2
21:17 42.4 °F /  5.8 °C 40.8 °F /  4.9 °C 29.9in /  1011.9hPa WNW 2.9mph /  4.7km/h 9mph /  14.5km/h 94% 0in /  0.0mm 0 W/m2
21:22 42.4 °F /  5.8 °C 40.8 °F /  4.9 °C 29.9in /  1012.2hPa NNW 0.9mph /  1.4km/h 11mph /  17.7km/h 94% 0in /  0.0mm 0 W/m2
21:27 42.4 °F /  5.8 °C 40.8 °F /  4.9 °C 29.9in /  1012.2hPa WSW 4.9mph /  7.9km/h 8mph /  12.9km/h 94% 0in /  0.0mm 0 W/m2
21:32 42.4 °F /  5.8 °C 40.8 °F /  4.9 °C 29.9in /  1012.2hPa SW 0.9mph /  1.4km/h 9mph /  14.5km/h 94% 0in /  0.0mm 0 W/m2
21:37 42.6 °F /  5.9 °C 41 °F /  5 °C 29.9in /  1012.2hPa West 6.9mph /  11.1km/h 13mph /  20.9km/h 94% 0in /  0.0mm 0 W/m2
21:42 42.6 °F /  5.9 °C 41 °F /  5 °C 29.9in /  1012.2hPa ENE 0.9mph /  1.4km/h 9mph /  14.5km/h 94% 0in /  0.0mm 0 W/m2
21:47 42.6 °F /  5.9 °C 41 °F /  5 °C 29.9in /  1012.2hPa WSW 8.1mph /  13km/h 9mph /  14.5km/h 94% 0in /  0.0mm 0 W/m2
21:52 42.6 °F /  5.9 °C 41 °F /  5 °C 29.9in /  1012.2hPa WNW 4.9mph /  7.9km/h 13mph /  20.9km/h 94% 0in /  0.0mm 0 W/m2
21:57 42.6 °F /  5.9 °C 41 °F /  5 °C 29.9in /  1012.2hPa WNW 4.9mph /  7.9km/h 9mph /  14.5km/h 94% 0in /  0.0mm 0 W/m2
22:02 42.8 °F /  6 °C 41.2 °F /  5.1 °C 29.9in /  1012.2hPa NNW 8.1mph /  13km/h 13mph /  20.9km/h 94% 0in /  0.0mm 0 W/m2
22:07 42.8 °F /  6 °C 41.2 °F /  5.1 °C 29.9in /  1012.2hPa SSW 4mph /  6.4km/h 14mph /  22.5km/h 94% 0in /  0.0mm 0 W/m2
22:12 43 °F /  6.1 °C 41.4 °F /  5.2 °C 29.9in /  1011.9hPa NE 2.9mph /  4.7km/h 5mph /  8km/h 94% 0in /  0.0mm 0 W/m2
22:17 43 °F /  6.1 °C 41.4 °F /  5.2 °C 29.9in /  1011.9hPa South 12.1mph /  19.5km/h 13mph /  20.9km/h 94% 0in /  0.0mm 0 W/m2
22:22 43 °F /  6.1 °C 41.4 °F /  5.2 °C 29.9in /  1011.9hPa WNW 6.9mph /  11.1km/h 11mph /  17.7km/h 94% 0in /  0.0mm 0 W/m2
22:27 43 °F /  6.1 °C 41.4 °F /  5.2 °C 29.9in /  1011.9hPa NNE 4.9mph /  7.9km/h 18mph /  29km/h 94% 0in /  0.0mm 0 W/m2
22:32 43 °F /  6.1 °C 41.4 °F /  5.2 °C 29.9in /  1011.9hPa WSW 6.9mph /  11.1km/h 11mph /  17.7km/h 94% 0in /  0.0mm 0 W/m2
22:37 42.8 °F /  6 °C 41.2 °F /  5.1 °C 29.9in /  1011.9hPa NNW 0.9mph /  1.4km/h 7mph /  11.3km/h 94% 0in /  0.0mm 0 W/m2
22:42 42.8 °F /  6 °C 41.2 °F /  5.1 °C 29.9in /  1012.2hPa WSW 4mph /  6.4km/h 13mph /  20.9km/h 94% 0in /  0.0mm 0 W/m2
22:47 42.6 °F /  5.9 °C 41 °F /  5 °C 29.9in /  1012.2hPa NNW 4.9mph /  7.9km/h 6mph /  9.7km/h 94% 0in /  0.0mm 0 W/m2
22:52 42.6 °F /  5.9 °C 41 °F /  5 °C 29.9in /  1011.9hPa ENE 2.9mph /  4.7km/h 5mph /  8km/h 94% 0in /  0.0mm 0 W/m2
22:57 42.4 °F /  5.8 °C 40.8 °F /  4.9 °C 29.9in /  1012.2hPa West 6mph /  9.7km/h 14mph /  22.5km/h 94% 0in /  0.0mm 0 W/m2
23:02 42.4 °F /  5.8 °C 40.8 °F /  4.9 °C 29.9in /  1011.9hPa NNW 2.9mph /  4.7km/h 9mph /  14.5km/h 94% 0in /  0.0mm 0 W/m2
23:07 42.4 °F /  5.8 °C 40.8 °F /  4.9 °C 29.9in /  1011.9hPa South 2mph /  3.2km/h 14mph /  22.5km/h 94% 0in /  0.0mm 0 W/m2
23:12 42.4 °F /  5.8 °C 40.8 °F /  4.9 °C 29.9in /  1011.9hPa NNW 4.9mph /  7.9km/h 12mph /  19.3km/h 94% 0in /  0.0mm 0 W/m2
23:17 42.4 °F /  5.8 °C 40.8 °F /  4.9 °C 29.9in /  1011.9hPa NW 2.9mph /  4.7km/h 8mph /  12.9km/h 94% 0in /  0.0mm 0 W/m2
23:22 42.4 °F /  5.8 °C 40.8 °F /  4.9 °C 29.9in /  1011.5hPa WNW 2.9mph /  4.7km/h 12mph /  19.3km/h 94% 0in /  0.0mm 0 W/m2
23:28 42.4 °F /  5.8 °C 40.8 °F /  4.9 °C 29.9in /  1011.5hPa WSW 0.9mph /  1.4km/h 10mph /  16.1km/h 94% 0in /  0.0mm 0 W/m2
23:33 42.4 °F /  5.8 °C 40.8 °F /  4.9 °C 29.9in /  1011.5hPa NE 2mph /  3.2km/h 5mph /  8km/h 94% 0in /  0.0mm 0 W/m2
23:38 42.4 °F /  5.8 °C 40.8 °F /  4.9 °C 29.9in /  1011.5hPa WNW 8.9mph /  14.3km/h 9mph /  14.5km/h 94% 0in /  0.0mm 0 W/m2
23:43 42.4 °F /  5.8 °C 40.8 °F /  4.9 °C 29.9in /  1011.2hPa SSW 4.9mph /  7.9km/h 8mph /  12.9km/h 94% 0in /  0.0mm 0 W/m2
23:48 42.4 °F /  5.8 °C 40.8 °F /  4.9 °C 29.9in /  1011.5hPa NW 2.9mph /  4.7km/h 8mph /  12.9km/h 94% 0in /  0.0mm 0 W/m2
23:53 42.4 °F /  5.8 °C 40.8 °F /  4.9 °C 29.9in /  1011.2hPa NNW 8.1mph /  13km/h 9mph /  14.5km/h 94% 0in /  0.0mm 0 W/m2
23:58 42.4 °F /  5.8 °C 40.8 °F /  4.9 °C 29.9in /  1011.2hPa West 6.9mph /  11.1km/h 12mph /  19.3km/h 94% 0in /  0.0mm 0 W/m2
Juneau County Weather
Compliments of Weather Underground - 4 mb